Terminal Aerodrome Forecast
Issued by NWS Detroit/Pontiac, MI

Home | Current Version | Previous Version | Text Only | Print | Product List | Glossary On
Versions: 1 2 3 4 5 6 7 8 9 10 11 12 13 14 15 16 17 18 19 20 21 22 23 24 25 26 27 28 29 30 31
571
FTUS43 KDTX 231727
TAFDTW
TAF
KDTW 231727Z 2318/2424 19006KT P6SM BKN100
     FM232100 15006KT P6SM OVC100
     FM240200 06004KT P6SM OVC100
     FM241100 10007KT 6SM -SHRA HZ BKN030 OVC060=

USA.gov is the U.S. government's official web portal to all federal, state and local government web resources and services.